메인 페이지
METAR-TAF:

METAR-TAF

공항 :

기타큐슈 공항

기타큐슈, 일본

위도: 33-50N, 경도: 130-57E, 고도: 3m

현재 날씨관측

예보는 28분 전, 17:00시(UTC)에 발표되었습니다.
서남서5kt
온도 17°C
습도 77%
기압 1014 hPa
시정 10km 이상
1500m 미만 상공 구름 및 적란운 없음

METAR: RJFR 171700Z 24005KT CAVOK 17/13 Q1014

시각: 02:28 (17:28 UTC)

예보

예보는 6 시간 21분 전, 11:07시(UTC)에 발표되었습니다.
예보 대상 시간: 17일 12시부터 18일 18시까지 (UTC)
북서6kt
시정 10km 이상
고도 3000ft 상공 구름 조금
전환 중
18일 12시부터 18일 15시까지 (UTC)
서남서8kt

TAF: RJFR 171107Z 1712/1818 32006KT 9999 FEW030 BECMG 1812/1815 24008KT

4,000개 이상의 공항 관측 자료 및 예보 (METAR 및 TAF 보고).

지도상에서 검색 가능한 기상관측소가 노란 점과 빨간 점으로 표시되어 있습니다.

기상관측소 명을 보려면 표시 위로 마우스를 이동하세요.

날씨 관측과 예보를 보려면 클릭하세요.

지도 변경 : 확대하려면 엑스 표시가 있는 녹색 버튼, 축소하려면 빼기 표시가 있는 녹색 버튼, 다음 페이지의 지도를 보려면 녹색 화살표를 클릭하세요.


METAR-TAF: